createdAt,value
2022-12-26T00:01:52.828Z,11.90
2022-12-26T00:05:54.451Z,11.80
2022-12-26T00:09:56.071Z,11.80
2022-12-26T00:13:58.949Z,11.80
2022-12-26T00:18:00.700Z,11.80
2022-12-26T00:22:02.306Z,11.80
2022-12-26T00:26:05.224Z,11.80
2022-12-26T00:30:07.239Z,11.80
2022-12-26T00:34:09.886Z,11.80
2022-12-26T00:38:11.518Z,11.90
2022-12-26T00:42:13.123Z,11.80
2022-12-26T00:46:15.335Z,11.90
2022-12-26T00:50:20.030Z,11.80
2022-12-26T00:54:21.666Z,11.80
2022-12-26T00:58:23.480Z,11.70
2022-12-26T01:02:40.351Z,11.70
2022-12-26T01:06:42.203Z,11.70
2022-12-26T01:10:44.804Z,11.70
2022-12-26T01:14:46.406Z,11.70
2022-12-26T01:18:48.056Z,11.60
2022-12-26T01:22:49.669Z,11.70
2022-12-26T01:26:51.316Z,11.70
2022-12-26T01:30:52.961Z,11.70
2022-12-26T01:34:55.671Z,11.70
2022-12-26T01:38:57.368Z,11.60
2022-12-26T01:42:59.013Z,11.50
2022-12-26T01:47:00.651Z,11.40
2022-12-26T01:51:03.812Z,11.40
2022-12-26T01:55:08.094Z,11.40
2022-12-26T01:59:11.440Z,11.40
2022-12-26T02:03:32.131Z,11.40
2022-12-26T02:07:35.833Z,11.40
2022-12-26T02:11:42.875Z,11.50
2022-12-26T02:15:44.651Z,11.50
2022-12-26T02:19:59.233Z,11.50
2022-12-26T02:24:19.630Z,11.50
2022-12-26T02:28:27.284Z,11.40
2022-12-26T02:32:39.705Z,11.40
2022-12-26T02:37:00.138Z,11.50
2022-12-26T02:41:11.369Z,11.40
2022-12-26T02:45:38.893Z,11.50
2022-12-26T02:50:00.465Z,11.50
2022-12-26T02:54:52.681Z,11.40
2022-12-26T02:59:17.417Z,11.40
2022-12-26T03:03:38.927Z,11.30
2022-12-26T03:08:00.423Z,11.40
2022-12-26T03:12:25.751Z,11.40
2022-12-26T03:16:46.890Z,11.30
2022-12-26T03:20:49.267Z,11.30
2022-12-26T03:25:09.999Z,11.20
2022-12-26T03:29:31.534Z,11.20
2022-12-26T03:33:53.538Z,11.20
2022-12-26T03:38:13.866Z,11.10
2022-12-26T03:42:48.776Z,11.10
2022-12-26T03:47:29.702Z,11.10
2022-12-26T03:51:53.551Z,11.00
2022-12-26T03:56:13.620Z,11.10
2022-12-26T04:00:36.256Z,11.10
2022-12-26T04:04:58.151Z,11.20
2022-12-26T04:09:21.238Z,11.10
2022-12-26T04:13:47.328Z,11.20
2022-12-26T04:18:20.903Z,11.10
2022-12-26T04:22:47.725Z,11.00
2022-12-26T04:27:10.677Z,11.00
2022-12-26T04:31:49.977Z,11.00
2022-12-26T04:36:19.683Z,11.00
2022-12-26T04:40:43.257Z,11.00
2022-12-26T04:44:46.280Z,11.00
2022-12-26T04:49:10.824Z,10.90
2022-12-26T04:53:13.421Z,10.70
2022-12-26T04:57:15.019Z,10.70
2022-12-26T05:01:35.438Z,10.70
2022-12-26T05:06:00.396Z,10.70
2022-12-26T05:10:02.064Z,10.70
2022-12-26T05:14:03.718Z,10.70
2022-12-26T05:18:24.074Z,10.70
2022-12-26T05:22:45.741Z,10.60
2022-12-26T05:27:06.380Z,10.70
2022-12-26T05:31:12.595Z,10.60
2022-12-26T05:35:14.316Z,10.70
2022-12-26T05:39:16.184Z,10.70
2022-12-26T05:43:19.761Z,10.70
2022-12-26T05:47:21.403Z,10.70
2022-12-26T05:51:23.013Z,10.80
2022-12-26T05:55:24.967Z,10.80
2022-12-26T05:59:26.685Z,10.80
2022-12-26T06:03:29.797Z,10.80
2022-12-26T06:07:32.387Z,10.90
2022-12-26T06:11:34.372Z,10.80
2022-12-26T06:15:38.009Z,10.90
2022-12-26T06:19:46.361Z,10.90
2022-12-26T06:23:48.845Z,11.00
2022-12-26T06:27:50.451Z,10.90
2022-12-26T06:31:52.114Z,11.00
2022-12-26T06:35:53.761Z,10.90
2022-12-26T06:39:55.341Z,10.90
2022-12-26T06:43:58.189Z,10.90
2022-12-26T06:48:00.065Z,10.90
2022-12-26T06:52:01.776Z,10.90
2022-12-26T06:56:07.688Z,10.80
2022-12-26T07:00:09.882Z,10.90
2022-12-26T07:04:12.590Z,10.80
2022-12-26T07:08:14.188Z,10.80
2022-12-26T07:12:15.863Z,10.90
2022-12-26T07:16:17.516Z,10.80
2022-12-26T07:20:19.130Z,10.80
2022-12-26T07:24:21.434Z,10.80
2022-12-26T07:28:23.012Z,10.80
2022-12-26T07:32:24.590Z,10.80
2022-12-26T07:36:27.050Z,10.80
2022-12-26T07:40:29.260Z,10.80
2022-12-26T07:44:31.890Z,10.80
2022-12-26T07:48:33.524Z,10.80
2022-12-26T07:52:35.177Z,10.70
2022-12-26T07:56:36.870Z,10.70
2022-12-26T08:00:38.456Z,10.80
2022-12-26T08:04:40.102Z,10.80
2022-12-26T08:08:46.827Z,10.70
2022-12-26T08:12:52.028Z,10.80
2022-12-26T08:16:53.914Z,10.80
2022-12-26T08:20:57.608Z,10.70
2022-12-26T08:24:59.261Z,10.70
2022-12-26T08:29:00.859Z,10.70
2022-12-26T08:33:02.528Z,10.70
2022-12-26T08:37:04.114Z,10.70
2022-12-26T08:41:06.367Z,10.70
2022-12-26T08:45:08.218Z,10.70
2022-12-26T08:49:09.934Z,10.70
2022-12-26T08:53:11.456Z,10.70
2022-12-26T08:57:13.868Z,10.70
2022-12-26T09:01:16.960Z,10.70
2022-12-26T09:05:18.669Z,10.80
2022-12-26T09:09:20.357Z,10.80
2022-12-26T09:13:22.090Z,10.80
2022-12-26T09:17:24.369Z,10.80
2022-12-26T09:21:26.504Z,10.90
2022-12-26T09:25:28.455Z,11.00
2022-12-26T09:29:30.030Z,11.00
2022-12-26T09:33:33.292Z,11.00
2022-12-26T09:37:36.593Z,11.00
2022-12-26T09:41:44.324Z,11.10
2022-12-26T09:45:56.109Z,11.10
2022-12-26T09:49:58.140Z,11.10
2022-12-26T09:54:00.714Z,11.20
2022-12-26T09:58:17.767Z,11.20
2022-12-26T10:02:21.475Z,11.20
2022-12-26T10:06:24.677Z,11.20
2022-12-26T10:10:36.550Z,11.20
2022-12-26T10:15:03.556Z,11.30
2022-12-26T10:19:09.769Z,11.20
2022-12-26T10:23:18.757Z,11.20
2022-12-26T10:27:20.899Z,11.20
2022-12-26T10:31:24.788Z,11.30
2022-12-26T10:35:35.387Z,11.30
2022-12-26T10:39:43.113Z,11.30
2022-12-26T10:43:44.806Z,11.30
2022-12-26T10:47:47.770Z,11.30
2022-12-26T10:51:49.957Z,11.40
2022-12-26T10:55:51.603Z,11.30
2022-12-26T10:59:54.891Z,11.40
2022-12-26T11:04:00.866Z,11.40
2022-12-26T11:08:07.607Z,11.40
2022-12-26T11:12:23.083Z,11.40
2022-12-26T11:16:34.944Z,11.20
2022-12-26T11:20:36.761Z,11.10
2022-12-26T11:24:38.352Z,11.10
2022-12-26T11:28:40.014Z,11.10
2022-12-26T11:32:46.782Z,11.10
2022-12-26T11:36:49.635Z,11.10
2022-12-26T11:41:11.232Z,11.10
2022-12-26T11:45:16.952Z,10.90
2022-12-26T11:49:21.238Z,10.80
2022-12-26T11:53:23.262Z,10.80
2022-12-26T11:57:29.194Z,10.70
2022-12-26T12:01:30.876Z,10.70
2022-12-26T12:05:48.713Z,10.40
2022-12-26T12:10:09.198Z,10.10
2022-12-26T12:14:23.009Z,10.10
2022-12-26T12:18:35.193Z,10.10
2022-12-26T12:22:49.196Z,10.10
2022-12-26T12:27:17.300Z,10.20
2022-12-26T12:31:34.215Z,10.30
2022-12-26T12:35:38.801Z,10.30
2022-12-26T12:39:46.591Z,10.30
2022-12-26T12:43:54.338Z,10.30
2022-12-26T12:48:11.130Z,10.40
2022-12-26T12:52:12.740Z,10.30
2022-12-26T12:56:38.375Z,10.30
2022-12-26T13:00:55.959Z,10.30
2022-12-26T13:05:12.951Z,10.40
2022-12-26T13:09:34.844Z,10.40
2022-12-26T13:13:48.569Z,10.50
2022-12-26T13:17:53.337Z,10.50
2022-12-26T13:21:57.476Z,10.60
2022-12-26T13:26:08.566Z,10.60
2022-12-26T13:30:15.211Z,10.60
2022-12-26T13:34:18.584Z,10.40
2022-12-26T13:38:20.969Z,10.40
2022-12-26T13:42:44.394Z,10.50
2022-12-26T13:46:45.988Z,10.50
2022-12-26T13:50:55.733Z,10.40
2022-12-26T13:55:07.231Z,10.30
2022-12-26T13:59:18.137Z,9.90
2022-12-26T14:03:21.158Z,9.60
2022-12-26T14:07:46.424Z,9.30
2022-12-26T14:11:54.284Z,9.30
2022-12-26T14:16:10.823Z,9.10
2022-12-26T14:20:23.024Z,8.90
2022-12-26T14:24:49.900Z,8.80
2022-12-26T14:29:17.264Z,8.60
2022-12-26T14:33:39.541Z,8.40
2022-12-26T14:37:47.196Z,8.30
2022-12-26T14:42:25.919Z,8.20
2022-12-26T14:46:30.401Z,8.30
2022-12-26T14:50:32.279Z,8.20
2022-12-26T14:54:35.393Z,8.20
2022-12-26T14:58:37.965Z,8.30
2022-12-26T15:02:41.398Z,8.40
2022-12-26T15:07:08.039Z,8.40
2022-12-26T15:11:12.704Z,8.30
2022-12-26T15:15:17.247Z,8.30
2022-12-26T15:19:37.750Z,8.10
2022-12-26T15:23:39.340Z,8.20
2022-12-26T15:27:44.003Z,8.30
2022-12-26T15:32:04.682Z,8.20
2022-12-26T15:36:13.208Z,8.20
2022-12-26T15:40:19.788Z,8.20
2022-12-26T15:44:40.232Z,7.90
2022-12-26T15:49:08.117Z,7.80
2022-12-26T15:53:28.648Z,7.60
2022-12-26T15:57:38.101Z,7.60
2022-12-26T16:01:41.746Z,7.60
2022-12-26T16:06:02.082Z,7.40
2022-12-26T16:10:14.121Z,7.30
2022-12-26T16:14:26.386Z,7.10
2022-12-26T16:18:29.310Z,7.00
2022-12-26T16:22:48.802Z,6.90
2022-12-26T16:26:50.469Z,7.00
2022-12-26T16:30:52.544Z,6.90
2022-12-26T16:34:54.272Z,6.70
2022-12-26T16:38:56.177Z,6.60
2022-12-26T16:43:03.132Z,6.70
2022-12-26T16:47:06.472Z,6.50
2022-12-26T16:51:28.305Z,6.60
2022-12-26T16:55:39.414Z,6.70
2022-12-26T16:59:46.489Z,6.60
2022-12-26T17:03:51.145Z,6.60
2022-12-26T17:07:53.729Z,6.70
2022-12-26T17:12:03.404Z,6.60
2022-12-26T17:16:06.426Z,6.60
2022-12-26T17:20:23.358Z,6.70
2022-12-26T17:24:26.069Z,6.60
2022-12-26T17:28:28.361Z,6.50
2022-12-26T17:32:33.086Z,6.60
2022-12-26T17:40:58.499Z,6.60
2022-12-26T17:45:00.132Z,6.70
2022-12-26T17:49:01.885Z,6.60
2022-12-26T17:53:04.934Z,6.60
2022-12-26T17:57:06.541Z,6.50
2022-12-26T18:01:08.331Z,6.30
2022-12-26T18:05:10.265Z,6.30
2022-12-26T18:09:23.811Z,6.10
2022-12-26T18:13:25.800Z,6.00
2022-12-26T18:17:27.518Z,6.00
2022-12-26T18:21:29.119Z,5.90
2022-12-26T18:25:30.715Z,5.60
2022-12-26T18:29:32.517Z,5.60
2022-12-26T18:33:34.105Z,5.50
2022-12-26T18:37:38.106Z,5.50
2022-12-26T18:41:39.793Z,5.30
2022-12-26T18:45:43.182Z,5.20
2022-12-26T18:49:45.452Z,5.20
2022-12-26T18:53:47.292Z,5.10
2022-12-26T18:57:49.377Z,5.10
2022-12-26T19:01:51.324Z,5.20
2022-12-26T19:05:52.980Z,5.00
2022-12-26T19:09:55.639Z,4.90
2022-12-26T19:13:57.285Z,4.70
2022-12-26T19:17:59.148Z,4.80
2022-12-26T19:22:00.837Z,4.80
2022-12-26T19:26:08.361Z,4.70
2022-12-26T19:30:10.308Z,4.50
2022-12-26T19:34:11.922Z,4.50
2022-12-26T19:38:13.652Z,4.50
2022-12-26T19:42:15.249Z,4.50
2022-12-26T19:46:16.951Z,4.50
2022-12-26T19:50:18.683Z,4.50
2022-12-26T19:54:20.284Z,4.20
2022-12-26T19:58:21.889Z,4.20
2022-12-26T20:02:23.799Z,4.30
2022-12-26T20:06:26.566Z,4.20
2022-12-26T20:10:28.191Z,4.20
2022-12-26T20:14:30.041Z,4.10
2022-12-26T20:18:32.049Z,4.00
2022-12-26T20:22:33.794Z,4.00
2022-12-26T20:26:35.447Z,4.00
2022-12-26T20:30:37.214Z,3.90
2022-12-26T20:34:39.039Z,3.80
2022-12-26T20:38:41.102Z,3.80
2022-12-26T20:42:54.966Z,3.70
2022-12-26T20:46:56.557Z,3.70
2022-12-26T20:50:58.893Z,3.70
2022-12-26T20:55:00.463Z,3.60
2022-12-26T21:04:05.344Z,3.50
2022-12-26T21:08:07.075Z,3.50
2022-12-26T21:12:08.677Z,3.50
2022-12-26T21:16:12.144Z,3.40
2022-12-26T21:20:14.079Z,3.50
2022-12-26T21:24:20.083Z,3.50
2022-12-26T21:28:21.676Z,3.40
2022-12-26T21:32:23.286Z,3.30
2022-12-26T21:36:24.935Z,3.20
2022-12-26T21:40:27.498Z,3.30
2022-12-26T21:44:29.431Z,3.20
2022-12-26T21:48:31.049Z,3.20
2022-12-26T21:52:32.708Z,3.20
2022-12-26T21:56:34.255Z,3.20
2022-12-26T22:00:35.974Z,3.30
2022-12-26T22:04:37.558Z,3.20
2022-12-26T22:08:39.174Z,3.30
2022-12-26T22:12:59.039Z,3.30
2022-12-26T22:17:00.639Z,3.20
2022-12-26T22:21:03.712Z,3.20
2022-12-26T22:25:05.651Z,3.20
2022-12-26T22:29:07.265Z,3.20
2022-12-26T22:33:08.850Z,3.20
2022-12-26T22:37:10.421Z,3.20
2022-12-26T22:41:12.044Z,3.20
2022-12-26T22:45:13.791Z,3.20
2022-12-26T22:49:15.682Z,3.30
2022-12-26T22:53:17.294Z,3.20
2022-12-26T22:57:18.835Z,3.20
2022-12-26T23:01:20.628Z,3.20
2022-12-26T23:05:22.422Z,3.20
2022-12-26T23:09:24.304Z,3.20
2022-12-26T23:13:26.038Z,3.20
2022-12-26T23:17:47.478Z,3.20
2022-12-26T23:21:50.445Z,3.20
2022-12-26T23:25:52.149Z,3.20
2022-12-26T23:30:12.606Z,3.20
2022-12-26T23:34:14.588Z,3.20
2022-12-26T23:38:16.522Z,3.30
2022-12-26T23:42:18.135Z,3.30
2022-12-26T23:46:19.731Z,3.30
2022-12-26T23:50:21.374Z,3.30
2022-12-26T23:54:23.418Z,3.30
2022-12-26T23:58:25.205Z,3.30
